Time;durP1;ratioP1;P1;durP2;ratioP2;P2;SDS_P1;SDS_P2;PMS_P1;PMS_P2;Temp;Humidity;BMP_temperature;BMP_pressure;BME280_temperature;BME280_humidity;BME280_pressure;Samples;Min_cycle;Max_cycle;Signal;HPM_P1;HPM_P2
2022/09/07 00:01:32;;;;;;;9.03;3.07;;;18.60;99.90;;;19.47;100.00;97875.56;5019024;28;20470;-87
2022/09/07 00:04:00;;;;;;;6.30;2.63;;;18.60;99.90;;;19.46;100.00;97873.97;5021846;28;20512;-87
2022/09/07 00:06:30;;;;;;;9.30;2.90;;;18.60;99.90;;;19.38;100.00;97882.31;5017970;28;20470;-87
2022/09/07 00:08:59;;;;;;;7.30;3.40;;;18.60;99.90;;;19.38;100.00;97888.41;5021502;28;20536;-87
2022/09/07 00:11:29;;;;;;;5.30;2.63;;;18.60;99.90;;;19.38;100.00;97893.72;5020372;28;20465;-87
2022/09/07 00:14:00;;;;;;;5.77;2.43;;;18.60;99.90;;;19.42;100.00;97886.91;5020652;28;20540;-86
2022/09/07 00:16:31;;;;;;;5.10;2.90;;;18.70;99.90;;;19.40;100.00;97886.31;5021378;28;20551;-86
2022/09/07 00:19:03;;;;;;;10.43;3.20;;;18.60;99.90;;;19.36;100.00;97879.94;5016742;28;20718;-87
2022/09/07 00:21:33;;;;;;;8.33;2.60;;;18.60;99.90;;;19.35;100.00;97882.81;5021759;28;20451;-86
2022/09/07 00:24:03;;;;;;;2.60;2.33;;;18.60;99.90;;;19.37;100.00;97881.50;5021381;28;20957;-86
2022/09/07 00:26:32;;;;;;;10.23;2.77;;;18.60;99.90;;;19.34;100.00;97874.06;5017226;28;20494;-87
2022/09/07 00:29:05;;;;;;;13.73;2.90;;;18.60;99.90;;;19.33;100.00;97863.72;5020520;28;20457;-87
2022/09/07 00:31:34;;;;;;;14.17;3.37;;;18.50;99.90;;;19.30;100.00;97866.84;5022914;28;20469;-87
2022/09/07 00:34:03;;;;;;;5.07;2.80;;;18.40;99.90;;;19.30;100.00;97870.28;5025542;28;20466;-86
2022/09/07 00:36:33;;;;;;;8.70;2.60;;;18.40;99.90;;;19.30;100.00;97867.63;5021545;28;20447;-87
2022/09/07 00:39:02;;;;;;;6.77;3.47;;;18.40;99.90;;;19.33;100.00;97869.00;5022800;28;20454;-87
2022/09/07 00:41:31;;;;;;;5.83;3.37;;;18.40;99.90;;;19.29;100.00;97868.69;5016320;28;20521;-87
2022/09/07 00:45:02;;;;;;;7.20;2.70;;;18.40;99.90;;;19.31;100.00;97861.28;5021675;28;20473;-87
2022/09/07 00:47:44;;;;;;;4.10;2.70;;;18.40;99.90;;;19.31;100.00;97861.28;5020318;28;20520;-87
2022/09/07 00:50:22;;;;;;;8.13;2.73;;;18.40;99.90;;;19.29;100.00;97862.59;5021296;28;20489;-87
2022/09/07 00:52:59;;;;;;;4.03;3.07;;;18.40;99.90;;;19.30;100.00;97864.22;5017787;28;20551;-87
2022/09/07 00:55:31;;;;;;;4.93;2.57;;;18.40;99.90;;;19.30;100.00;97859.69;5017139;28;20486;-87
2022/09/07 00:58:00;;;;;;;5.27;2.80;;;18.50;99.90;;;19.31;100.00;97855.19;5017662;28;20463;-86
2022/09/07 01:00:34;;;;;;;14.63;3.17;;;18.50;99.90;;;19.30;100.00;97862.31;5020259;28;20517;-86
2022/09/07 01:03:05;;;;;;;9.13;2.40;;;18.40;99.90;;;19.31;100.00;97865.78;5017388;28;20890;-86
2022/09/07 01:05:41;;;;;;;4.70;3.00;;;18.40;99.90;;;19.30;100.00;97854.38;5019711;28;20589;-87
2022/09/07 01:08:13;;;;;;;5.53;3.20;;;18.40;99.90;;;19.31;100.00;97853.34;5021456;28;20465;-87
2022/09/07 01:10:42;;;;;;;6.83;2.83;;;18.40;99.90;;;19.34;100.00;97857.34;5017774;28;20491;-87
2022/09/07 01:13:11;;;;;;;17.77;3.10;;;18.40;99.90;;;19.34;100.00;97855.47;5017671;28;21305;-86
2022/09/07 01:15:52;;;;;;;5.43;2.63;;;18.40;99.90;;;19.28;100.00;97851.19;5018228;28;20466;-86
2022/09/07 01:18:34;;;;;;;2.67;2.43;;;18.40;99.90;;;19.21;100.00;97853.22;5019308;28;20468;-87
2022/09/07 01:21:25;;;;;;;8.27;2.93;;;18.20;99.90;;;19.09;100.00;97858.63;5020596;28;20558;-86
2022/09/07 01:24:42;;;;;;;5.77;3.40;;;18.30;99.90;;;19.13;100.00;97853.63;5018502;28;20504;-87
2022/09/07 01:28:05;;;;;;;4.40;2.63;;;18.30;99.90;;;19.12;100.00;97852.06;4975405;28;20477;-86
2022/09/07 01:30:38;;;;;;;5.07;3.00;;;18.30;99.90;;;19.13;100.00;97858.13;5021679;28;20599;-87
2022/09/07 01:33:31;;;;;;;6.27;2.90;;;18.20;99.90;;;19.05;100.00;97867.34;5016612;28;20922;-87
2022/09/07 01:36:16;;;;;;;6.67;3.00;;;18.20;99.90;;;19.04;100.00;97853.28;5019407;28;20820;-87
2022/09/07 01:38:51;;;;;;;7.70;3.07;;;18.10;99.90;;;19.02;100.00;97847.41;5015262;28;20830;-87
2022/09/07 01:41:29;;;;;;;5.97;3.00;;;18.10;99.90;;;19.02;100.00;97841.31;5016759;28;20944;-87
2022/09/07 01:44:06;;;;;;;4.10;2.87;;;18.10;99.90;;;19.02;100.00;97841.31;5018637;28;20459;-88
2022/09/07 01:46:43;;;;;;;9.67;3.57;;;18.10;99.90;;;19.04;100.00;97844.50;5021462;28;20450;-88
2022/09/07 01:49:20;;;;;;;5.90;3.40;;;18.10;99.90;;;19.00;100.00;97844.19;5018691;28;20977;-87
2022/09/07 01:51:55;;;;;;;6.73;3.27;;;18.10;99.90;;;18.93;100.00;97850.72;5019030;28;20535;-87
2022/09/07 01:54:32;;;;;;;24.07;3.27;;;18.10;99.90;;;18.88;100.00;97858.63;5019086;28;20480;-86
2022/09/07 01:57:10;;;;;;;5.40;3.30;;;18.00;99.90;;;18.86;100.00;97852.75;5018116;28;21083;-87
2022/09/07 01:59:47;;;;;;;4.43;3.07;;;18.00;99.90;;;18.89;100.00;97854.91;5018616;28;20477;-86
2022/09/07 02:02:25;;;;;;;6.17;3.60;;;18.00;99.90;;;18.93;100.00;97858.69;5021669;28;20465;-87
2022/09/07 02:05:00;;;;;;;4.70;3.10;;;18.00;99.90;;;18.92;100.00;97859.72;5017123;28;21063;-87
2022/09/07 02:07:40;;;;;;;4.90;3.07;;;18.00;99.90;;;18.94;100.00;97857.63;5017396;28;20476;-87
2022/09/07 02:10:16;;;;;;;9.33;3.90;;;18.00;99.90;;;18.90;100.00;97856.50;5019137;28;20606;-87
2022/09/07 02:12:52;;;;;;;5.17;3.30;;;17.90;99.90;;;18.85;100.00;97851.13;5018705;28;20532;-87
2022/09/07 02:15:28;;;;;;;5.00;3.77;;;18.00;99.90;;;18.86;100.00;97847.44;5020703;28;20508;-87
2022/09/07 02:18:04;;;;;;;5.63;3.33;;;18.00;99.90;;;18.81;100.00;97844.75;5017484;28;20497;-86
2022/09/07 02:20:38;;;;;;;7.53;3.70;;;17.90;99.90;;;18.78;100.00;97838.06;5019180;28;20466;-87
2022/09/07 02:23:14;;;;;;;7.40;3.77;;;17.90;99.90;;;18.77;100.00;97839.13;5015490;28;20918;-87
2022/09/07 02:25:51;;;;;;;4.07;3.20;;;17.90;99.90;;;18.79;100.00;97841.53;5018380;28;20519;-87
2022/09/07 02:28:28;;;;;;;3.70;2.90;;;18.00;99.90;;;18.80;100.00;97840.47;5019797;28;20500;-87
2022/09/07 02:30:58;;;;;;;3.40;2.90;;;17.90;99.90;;;18.80;100.00;97838.63;5020100;28;20477;-87
2022/09/07 02:33:29;;;;;;;7.70;3.70;;;17.90;99.90;;;18.76;100.00;97836.72;5019560;28;20922;-87
2022/09/07 02:36:00;;;;;;;6.17;3.37;;;17.90;99.90;;;18.70;100.00;97838.50;5019532;28;20517;-87
2022/09/07 02:38:30;;;;;;;6.40;3.80;;;17.90;99.90;;;18.72;100.00;97839.03;5017080;28;20586;-87
2022/09/07 02:41:02;;;;;;;6.07;2.80;;;17.90;99.90;;;18.75;100.00;97846.50;5018905;28;20854;-86
2022/09/07 02:43:33;;;;;;;3.17;2.87;;;17.80;99.90;;;18.78;100.00;97845.25;5017611;28;20470;-87
2022/09/07 02:47:06;;;;;;;5.10;3.60;;;17.80;99.90;;;18.71;100.00;97839.31;5016501;28;20473;-87
2022/09/07 02:50:16;;;;;;;3.83;3.23;;;17.80;99.90;;;18.69;100.00;97836.09;5018389;28;20461;-87
2022/09/07 02:53:07;;;;;;;6.50;2.97;;;17.90;99.90;;;18.65;100.00;97841.06;5018958;28;20473;-87
2022/09/07 02:55:52;;;;;;;10.03;4.07;;;17.80;99.90;;;18.67;100.00;97838.19;5018501;28;21070;-86
2022/09/07 02:58:35;;;;;;;8.13;3.30;;;17.70;99.90;;;18.68;100.00;97845.88;5017284;28;20496;-87
2022/09/07 03:01:16;;;;;;;6.10;3.30;;;17.70;99.90;;;18.64;100.00;97846.63;5016552;28;20490;-86
2022/09/07 03:04:01;;;;;;;5.50;3.43;;;17.70;99.90;;;18.67;100.00;97841.66;5017577;28;21031;-87
2022/09/07 03:06:40;;;;;;;7.03;3.20;;;17.70;99.90;;;18.68;100.00;97839.78;5020328;28;20462;-86
2022/09/07 03:09:17;;;;;;;4.87;3.37;;;17.70;99.90;;;18.67;100.00;97840.84;5020727;28;20492;-86
2022/09/07 03:11:46;;;;;;;10.07;6.10;;;17.70;99.90;;;18.64;100.00;97836.03;5022381;28;20996;-86
2022/09/07 03:14:18;;;;;;;9.47;6.40;;;17.70;99.90;;;18.64;100.00;97839.47;5014405;28;20466;-86
2022/09/07 03:16:49;;;;;;;3.70;3.30;;;17.70;99.90;;;18.67;100.00;97839.00;5017234;28;20884;-86
2022/09/07 03:19:20;;;;;;;8.30;5.47;;;17.70;99.90;;;18.66;100.00;97839.22;5014758;28;20516;-86
2022/09/07 03:21:49;;;;;;;4.40;3.60;;;17.80;99.90;;;18.64;100.00;97838.69;5019662;28;20442;-85
2022/09/07 03:24:18;;;;;;;7.40;3.40;;;17.80;99.90;;;18.63;100.00;97832.56;5017895;28;20460;-84
2022/09/07 03:26:49;;;;;;;4.17;3.47;;;17.70;99.90;;;18.63;100.00;97837.06;5017129;28;20532;-86
2022/09/07 03:29:18;;;;;;;4.40;2.90;;;17.70;99.90;;;18.64;100.00;97836.03;5013497;28;20478;-86
2022/09/07 03:31:47;;;;;;;7.30;3.67;;;17.70;99.90;;;18.63;100.00;97843.16;5014816;28;20585;-86
2022/09/07 03:34:19;;;;;;;4.13;3.73;;;17.70;99.90;;;18.63;100.00;97842.38;5015639;28;20467;-86
2022/09/07 03:36:49;;;;;;;7.30;4.13;;;17.70;99.90;;;18.58;100.00;97846.53;5015375;28;20508;-86
2022/09/07 03:39:21;;;;;;;5.10;4.07;;;17.70;99.90;;;18.54;100.00;97855.19;5016521;28;20466;-86
2022/09/07 03:41:50;;;;;;;93.03;46.90;;;17.70;99.90;;;18.49;100.00;97842.69;5023813;28;20466;-90
2022/09/07 03:44:19;;;;;;;10.40;4.67;;;17.60;99.90;;;18.49;100.00;97841.88;5022749;28;20462;-87
2022/09/07 03:46:48;;;;;;;8.20;3.80;;;17.60;99.90;;;18.48;100.00;97841.06;5022627;28;20494;-85
2022/09/07 03:49:19;;;;;;;4.43;3.13;;;17.60;99.90;;;18.45;100.00;97841.56;5022060;28;20470;-87
2022/09/07 03:51:48;;;;;;;4.37;3.30;;;17.60;99.90;;;18.44;100.00;97845.22;5021844;28;20551;-87
2022/09/07 03:54:17;;;;;;;4.70;3.10;;;17.50;99.90;;;18.43;100.00;97854.22;5021476;28;20877;-86
2022/09/07 03:56:47;;;;;;;5.00;3.77;;;17.50;99.90;;;18.38;100.00;97846.22;5023420;28;20463;-87
2022/09/07 03:59:16;;;;;;;6.03;3.13;;;17.50;99.90;;;18.34;100.00;97854.88;5021893;28;20507;-86
2022/09/07 04:01:45;;;;;;;3.50;3.00;;;17.50;99.90;;;18.29;100.00;97842.34;5020808;28;20462;-87
2022/09/07 04:04:14;;;;;;;2.70;2.50;;;17.50;99.90;;;18.31;100.00;97848.22;5020528;28;20810;-86
2022/09/07 04:06:46;;;;;;;3.33;2.83;;;17.40;99.90;;;18.31;100.00;97850.84;5016905;28;20458;-89
2022/09/07 04:09:15;;;;;;;18.97;9.70;;;17.40;99.90;;;18.25;100.00;97851.84;5029780;28;21000;-86
2022/09/07 04:11:43;;;;;;;3.30;2.70;;;17.40;99.90;;;18.26;100.00;97852.59;5019594;28;20489;-86
2022/09/07 04:14:14;;;;;;;3.10;2.80;;;17.30;99.90;;;18.27;100.00;97854.22;5018397;28;20459;-86
2022/09/07 04:16:44;;;;;;;7.17;3.13;;;17.30;99.90;;;18.20;100.00;97846.44;5021306;28;21065;-86
2022/09/07 04:19:13;;;;;;;3.50;3.20;;;17.30;99.90;;;18.19;100.00;97850.13;5022169;28;20449;-86
2022/09/07 04:21:45;;;;;;;3.90;2.70;;;17.30;99.90;;;18.18;100.00;97845.91;5021140;28;20949;-86
2022/09/07 04:24:17;;;;;;;4.50;3.10;;;17.30;99.90;;;18.19;100.00;97842.19;5022928;28;20471;-86
2022/09/07 04:26:46;;;;;;;3.10;2.33;;;17.20;99.90;;;18.18;100.00;97845.91;5021229;28;20457;-87
2022/09/07 04:29:15;;;;;;;13.67;3.27;;;17.20;99.90;;;18.16;100.00;97847.97;5023727;28;20925;-91
2022/09/07 04:31:44;;;;;;;4.40;3.07;;;17.30;99.90;;;18.13;100.00;97848.44;5023526;28;20605;-86
2022/09/07 04:34:14;;;;;;;4.67;2.87;;;17.20;99.90;;;18.14;100.00;97844.75;5021816;28;20504;-87
2022/09/07 04:36:43;;;;;;;4.83;2.97;;;17.20;99.90;;;18.11;100.00;97847.91;5020377;28;20536;-86
2022/09/07 04:39:12;;;;;;;3.13;2.30;;;17.30;99.90;;;18.07;100.00;97846.75;5026376;28;20445;-90
2022/09/07 04:41:43;;;;;;;3.13;2.83;;;17.20;99.90;;;18.07;100.00;97849.41;5026587;28;20482;-89
2022/09/07 04:44:12;;;;;;;2.93;2.50;;;17.20;99.90;;;18.12;100.00;97859.28;5032526;28;20438;-89
2022/09/07 04:46:44;;;;;;;7.50;3.43;;;17.20;99.90;;;18.12;100.00;97862.72;5023416;28;21167;-90
2022/09/07 04:49:13;;;;;;;10.93;3.70;;;17.20;99.90;;;18.09;100.00;97860.53;5026199;28;20951;-90
2022/09/07 04:51:43;;;;;;;6.33;3.60;;;17.20;99.90;;;18.08;100.00;97857.09;5026508;28;20477;-90
2022/09/07 04:54:12;;;;;;;6.53;3.53;;;17.20;99.90;;;18.09;100.00;97858.72;5026277;28;20457;-89
2022/09/07 04:56:43;;;;;;;4.47;3.63;;;17.20;99.90;;;18.09;100.00;97856.06;5025784;28;20493;-89
2022/09/07 04:59:12;;;;;;;8.13;4.00;;;17.20;99.90;;;18.07;100.00;97860.81;5026129;28;20494;-90
2022/09/07 05:01:41;;;;;;;7.33;4.27;;;17.20;99.90;;;18.06;100.00;97866.31;5027215;28;20462;-89
2022/09/07 05:04:10;;;;;;;8.57;4.40;;;17.20;99.90;;;18.05;100.00;97878.75;5033634;28;20455;-90
2022/09/07 05:06:39;;;;;;;5.83;5.10;;;17.20;99.90;;;18.07;100.00;97870.59;5026950;28;20443;-90
2022/09/07 05:09:08;;;;;;;15.93;4.53;;;17.20;99.90;;;18.06;100.00;97866.31;5025402;28;20470;-90
2022/09/07 05:11:36;;;;;;;8.60;4.43;;;17.20;99.90;;;18.04;100.00;97863.13;5029298;28;20582;-89
2022/09/07 05:14:07;;;;;;;5.60;4.03;;;17.20;99.90;;;18.04;100.00;97860.47;5027829;28;20478;-90
2022/09/07 05:16:35;;;;;;;4.10;3.70;;;17.10;99.90;;;17.98;100.00;97866.69;5023896;28;20899;-83
2022/09/07 05:19:05;;;;;;;15.30;4.07;;;17.10;99.90;;;17.92;100.00;97865.00;5022858;28;20461;-91
2022/09/07 05:21:35;;;;;;;10.53;4.10;;;17.10;99.90;;;17.93;100.00;97858.69;5027241;28;20570;-90
2022/09/07 05:24:06;;;;;;;14.53;4.10;;;17.10;99.90;;;17.91;100.00;97866.06;5030764;28;20815;-90
2022/09/07 05:26:38;;;;;;;4.97;4.30;;;17.10;99.90;;;17.86;100.00;97873.91;5020934;28;20497;-90
2022/09/07 05:29:08;;;;;;;7.60;4.23;;;17.00;99.90;;;17.89;100.00;97881.38;5025007;28;20454;-90
2022/09/07 05:31:58;;;;;;;4.83;3.77;;;17.00;99.90;;;17.87;100.00;97884.28;5025064;28;20573;-90
2022/09/07 05:34:26;;;;;;;21.67;5.00;;;17.00;99.90;;;17.86;100.00;97889.78;5026057;28;20454;-90
2022/09/07 05:37:01;;;;;;;6.50;4.20;;;16.90;99.90;;;17.86;100.00;97889.78;5021572;28;20450;-90
2022/09/07 05:39:30;;;;;;;7.20;5.13;;;16.90;99.90;;;17.85;100.00;97890.81;5023582;28;20447;-90
2022/09/07 05:41:59;;;;;;;4.43;4.03;;;16.90;99.90;;;17.83;100.00;97896.38;5022394;28;20948;-90
2022/09/07 05:44:30;;;;;;;5.30;3.93;;;16.90;99.90;;;17.81;100.00;97898.41;5025517;28;20516;-90
2022/09/07 05:47:15;;;;;;;6.13;3.63;;;16.90;99.90;;;17.82;100.00;97901.88;5026653;28;20450;-90
2022/09/07 05:49:43;;;;;;;5.60;4.30;;;16.90;99.90;;;17.83;100.00;97900.84;5024708;28;20945;-90
2022/09/07 05:52:13;;;;;;;4.93;4.20;;;16.90;99.90;;;17.82;100.00;97897.38;5025885;28;20853;-90
2022/09/07 05:54:42;;;;;;;7.00;3.90;;;17.00;99.90;;;17.83;100.00;97903.50;5024209;28;20513;-90
2022/09/07 05:57:12;;;;;;;5.10;4.10;;;17.00;99.90;;;17.81;100.00;97902.91;5023347;28;20458;-90
2022/09/07 05:59:42;;;;;;;4.57;3.77;;;17.00;99.90;;;17.82;100.00;97907.16;5021245;28;20961;-90
2022/09/07 06:02:14;;;;;;;5.37;4.00;;;17.00;99.90;;;17.84;100.00;97899.81;5023958;28;20454;-90
2022/09/07 06:04:43;;;;;;;4.87;4.07;;;17.00;99.90;;;17.84;100.00;97905.88;5021700;28;20460;-90
2022/09/07 06:07:13;;;;;;;11.47;4.40;;;17.00;99.90;;;17.84;100.00;97916.47;5024043;28;20443;-90
2022/09/07 06:09:50;;;;;;;9.43;4.50;;;17.00;99.90;;;17.85;100.00;97918.09;5023166;28;20455;-90
2022/09/07 06:12:44;;;;;;;11.67;4.63;;;17.00;99.90;;;17.89;100.00;97918.41;5028854;28;20476;-91
2022/09/07 06:15:18;;;;;;;5.83;4.00;;;17.00;99.90;;;17.91;100.00;97919.00;5023157;28;20462;-91
2022/09/07 06:17:47;;;;;;;16.77;4.17;;;17.00;99.90;;;17.97;100.00;97928.63;5026764;28;20951;-90
2022/09/07 06:20:18;;;;;;;6.80;4.67;;;17.00;99.90;;;17.99;100.00;97926.53;5030377;28;20964;-90
2022/09/07 06:22:47;;;;;;;5.13;4.30;;;17.10;99.90;;;18.01;100.00;97917.31;5040668;28;20466;-90
2022/09/07 06:25:16;;;;;;;12.53;5.70;;;17.10;99.90;;;18.09;100.00;97932.00;5028964;28;20496;-90
2022/09/07 06:27:48;;;;;;;9.80;6.20;;;17.20;99.90;;;18.14;100.00;97928.66;5028252;28;20476;-90
2022/09/07 06:30:19;;;;;;;13.73;5.67;;;17.20;99.90;;;18.19;100.00;97931.41;5030872;28;20448;-90
2022/09/07 06:32:48;;;;;;;10.57;6.47;;;17.30;99.90;;;18.23;100.00;97933.31;5025389;28;20508;-91
2022/09/07 06:35:17;;;;;;;11.60;5.93;;;17.30;99.90;;;18.30;100.00;97927.88;5024968;28;20450;-90
2022/09/07 06:37:46;;;;;;;14.40;7.20;;;17.40;99.90;;;18.36;100.00;97937.53;5022971;28;20454;-90
2022/09/07 06:40:15;;;;;;;15.83;7.70;;;17.50;99.90;;;18.41;100.00;97933.09;5027386;28;20446;-90
2022/09/07 06:42:45;;;;;;;8.40;6.60;;;17.50;99.90;;;18.46;100.00;97935.03;5042936;28;20450;-90
2022/09/07 06:45:14;;;;;;;11.50;6.60;;;17.60;99.90;;;18.52;100.00;97939.41;5024297;28;20459;-90
2022/09/07 06:47:44;;;;;;;10.63;8.03;;;17.60;99.90;;;18.57;100.00;97942.94;5027164;28;20513;-91
2022/09/07 06:50:13;;;;;;;18.23;7.40;;;17.70;99.90;;;18.63;100.00;97938.53;5022021;28;20450;-90
2022/09/07 06:52:42;;;;;;;12.23;7.60;;;17.70;99.90;;;18.68;100.00;97945.75;5029165;28;20497;-90
2022/09/07 06:55:31;;;;;;;8.60;6.83;;;17.80;99.90;;;18.72;100.00;97952.97;5025575;28;20521;-90
2022/09/07 06:58:00;;;;;;;10.80;7.27;;;17.90;99.90;;;18.79;100.00;97947.50;5021239;28;20446;-91
2022/09/07 07:00:29;;;;;;;15.33;8.40;;;18.00;99.90;;;18.83;100.00;97956.59;5029487;28;20453;-90
2022/09/07 07:03:01;;;;;;;11.87;7.50;;;18.10;99.90;;;18.85;100.00;97960.59;5024967;28;20445;-90
2022/09/07 07:05:30;;;;;;;13.90;8.23;;;18.10;99.90;;;18.91;100.00;97958.84;5026941;28;20557;-90
2022/09/07 07:07:59;;;;;;;18.73;7.97;;;18.10;99.90;;;18.96;100.00;97958.91;5054177;28;20980;-90
2022/09/07 07:10:28;;;;;;;11.13;7.13;;;18.20;99.90;;;19.01;100.00;97954.50;5025421;28;20865;-91
2022/09/07 07:12:57;;;;;;;13.53;7.80;;;18.20;99.90;;;19.07;100.00;97953.50;5025968;28;20481;-91
2022/09/07 07:15:28;;;;;;;12.00;7.63;;;18.30;99.90;;;19.13;100.00;97954.38;5023764;28;20916;-90
2022/09/07 07:17:57;;;;;;;14.87;8.67;;;18.30;99.90;;;19.19;100.00;97957.91;5026937;28;20446;-90
2022/09/07 07:20:48;;;;;;;13.70;8.17;;;18.40;99.90;;;19.21;100.00;97950.50;5021181;28;20439;-90
2022/09/07 07:23:17;;;;;;;16.13;7.97;;;18.40;99.90;;;19.22;100.00;97946.81;5025583;28;20471;-90
2022/09/07 07:25:46;;;;;;;15.70;7.23;;;18.40;99.90;;;19.28;100.00;97940.53;5054814;28;20451;-90
2022/09/07 07:28:15;;;;;;;14.33;7.40;;;18.40;99.90;;;19.29;100.00;97942.16;5024631;28;20458;-91
2022/09/07 07:31:06;;;;;;;14.30;6.80;;;18.50;99.90;;;19.37;100.00;97945.16;5022573;28;20434;-91
2022/09/07 07:33:41;;;;;;;13.00;6.83;;;18.70;99.90;;;19.43;100.00;97944.22;5023170;28;20478;-91
2022/09/07 07:36:14;;;;;;;16.50;8.23;;;18.70;99.90;;;19.48;100.00;97935.50;5024525;28;20457;-91
2022/09/07 07:38:46;;;;;;;19.40;7.30;;;18.80;99.90;;;19.50;100.00;97944.84;5026440;28;20536;-91
2022/09/07 07:41:33;;;;;;;11.80;7.13;;;18.80;99.90;;;19.49;100.00;97948.53;5025606;28;20957;-91
2022/09/07 07:44:22;;;;;;;13.30;7.33;;;18.70;99.90;;;19.54;100.00;97951.25;5024400;28;20529;-90
2022/09/07 07:46:51;;;;;;;11.13;7.40;;;18.80;99.90;;;19.56;100.00;97948.34;5020908;28;20470;-91
2022/09/07 07:49:20;;;;;;;12.30;6.70;;;18.80;99.90;;;19.59;100.00;97948.66;5025136;28;20450;-90
2022/09/07 07:51:53;;;;;;;16.10;7.43;;;18.80;99.90;;;19.64;100.00;97955.09;5025328;28;20501;-91
2022/09/07 07:54:43;;;;;;;12.17;6.80;;;18.90;99.90;;;19.62;100.00;97952.66;5021536;28;20487;-90
2022/09/07 07:57:12;;;;;;;14.73;7.23;;;18.90;99.90;;;19.69;100.00;97952.47;5028807;28;20426;-90
2022/09/07 07:59:41;;;;;;;16.40;7.60;;;18.90;99.90;;;19.76;100.00;97947.78;5021413;28;20490;-90
2022/09/07 08:02:16;;;;;;;12.73;6.20;;;19.00;99.90;;;19.74;100.00;97953.34;5024874;28;20542;-91
2022/09/07 08:04:46;;;;;;;12.80;5.30;;;18.90;99.90;;;19.76;100.00;97953.09;5024784;28;20475;-90
2022/09/07 08:07:18;;;;;;;12.60;5.07;;;19.00;99.90;;;19.74;100.00;97955.22;5025453;28;20560;-90
2022/09/07 08:09:48;;;;;;;14.50;4.87;;;19.00;99.90;;;19.74;100.00;97957.88;5017030;28;20465;-90
2022/09/07 08:12:19;;;;;;;9.77;5.40;;;19.00;99.90;;;19.74;100.00;97956.03;5025897;28;20552;-91
2022/09/07 08:14:48;;;;;;;7.27;4.23;;;19.00;99.90;;;19.74;100.00;97955.22;5022357;28;20532;-91
2022/09/07 08:17:18;;;;;;;7.20;4.43;;;19.10;99.90;;;19.76;100.00;97958.41;5021328;28;20497;-90
2022/09/07 08:19:47;;;;;;;11.67;5.03;;;19.10;99.90;;;19.74;100.00;97957.88;5023522;28;20535;-91
2022/09/07 08:22:17;;;;;;;6.83;4.30;;;19.00;99.90;;;19.78;100.00;97961.63;5024378;28;20459;-90
2022/09/07 08:24:46;;;;;;;7.43;4.03;;;19.10;99.90;;;19.83;100.00;97964.31;5026775;28;20928;-89
2022/09/07 08:27:19;;;;;;;9.60;4.40;;;19.20;99.90;;;19.81;100.00;97969.09;5023237;28;20454;-89
2022/09/07 08:29:47;;;;;;;10.03;4.00;;;19.00;99.90;;;19.89;100.00;97971.28;5021393;28;20503;-89
2022/09/07 08:32:17;;;;;;;6.63;3.67;;;19.20;99.90;;;19.93;100.00;97975.06;5019546;28;20494;-88
2022/09/07 08:34:46;;;;;;;3.93;3.23;;;19.30;99.90;;;19.92;100.00;97968.94;5022690;28;20490;-88
2022/09/07 08:37:17;;;;;;;6.73;3.70;;;19.30;99.90;;;19.94;100.00;97974.81;5023086;28;20911;-90
2022/09/07 08:39:45;;;;;;;6.73;4.33;;;19.30;99.90;;;19.94;100.00;97972.16;5024055;28;20450;-89
2022/09/07 08:42:41;;;;;;;12.10;3.97;;;19.20;99.90;;;19.91;100.00;97977.97;5027220;28;20538;-90
2022/09/07 08:45:15;;;;;;;4.90;3.47;;;19.20;99.90;;;19.95;100.00;97983.59;5024701;28;20451;-90
2022/09/07 08:47:49;;;;;;;7.83;3.90;;;19.30;99.90;;;19.94;100.00;97981.97;5025530;28;20524;-89
2022/09/07 08:50:23;;;;;;;7.53;3.50;;;19.30;99.90;;;19.99;100.00;97979.41;5022452;28;20970;-89
2022/09/07 08:53:01;;;;;;;8.00;3.70;;;19.30;99.90;;;19.96;100.00;97977.22;5024776;28;20449;-90
2022/09/07 08:55:36;;;;;;;10.90;4.17;;;19.30;99.90;;;19.99;100.00;97976.75;5023196;28;20568;-90
2022/09/07 08:58:12;;;;;;;10.93;4.03;;;19.30;99.90;;;20.02;100.00;97978.91;5025236;28;21013;-90
2022/09/07 09:01:01;;;;;;;6.13;3.43;;;19.20;99.90;;;20.10;100.00;97978.44;5025269;28;20891;-90
2022/09/07 09:03:50;;;;;;;6.03;3.70;;;19.40;99.90;;;20.11;100.00;97980.03;5029317;28;20442;-90
2022/09/07 09:06:51;;;;;;;13.43;3.20;;;19.40;99.90;;;20.16;100.00;97968.69;5026751;28;20438;-90
2022/09/07 09:09:42;;;;;;;7.70;3.77;;;19.50;99.90;;;20.21;100.00;97971.38;5025707;28;20486;-91
2022/09/07 09:12:24;;;;;;;3.93;3.57;;;19.50;99.90;;;20.24;100.00;97979.66;5030994;28;20540;-90
2022/09/07 09:15:13;;;;;;;4.77;3.90;;;19.60;99.90;;;20.22;100.00;97979.09;5026519;28;20536;-90
2022/09/07 09:17:54;;;;;;;10.07;4.07;;;19.60;99.90;;;20.27;100.00;97981.03;5024112;28;20562;-90
2022/09/07 09:20:31;;;;;;;7.27;3.40;;;19.70;99.90;;;20.30;100.00;97983.19;5025036;28;20785;-91
2022/09/07 09:23:11;;;;;;;9.00;4.30;;;19.60;99.90;;;20.30;100.00;97985.84;5025952;28;20476;-90
2022/09/07 09:25:52;;;;;;;8.03;4.47;;;19.60;99.90;;;20.35;100.00;97981.38;5029455;28;20454;-90
2022/09/07 09:28:22;;;;;;;8.83;3.40;;;19.70;99.90;;;20.36;100.00;97980.34;5026837;28;20449;-91
2022/09/07 09:30:53;;;;;;;7.93;3.57;;;19.60;99.90;;;20.42;100.00;97986.50;5042643;28;20557;-91
2022/09/07 09:33:25;;;;;;;8.30;3.63;;;19.70;99.90;;;20.42;100.00;97979.34;5028482;28;20928;-91
2022/09/07 09:35:57;;;;;;;6.30;3.40;;;19.80;99.90;;;20.47;100.00;97966.09;5024770;28;20553;-91
2022/09/07 09:38:36;;;;;;;6.23;3.50;;;19.90;99.90;;;20.53;100.00;97972.25;5026237;28;20536;-91
2022/09/07 09:41:09;;;;;;;8.10;3.20;;;19.90;99.90;;;20.58;100.00;97964.34;5023203;28;20493;-91
2022/09/07 09:43:45;;;;;;;8.03;3.10;;;20.00;99.90;;;20.56;100.00;97953.16;5027557;28;20891;-90
2022/09/07 09:46:23;;;;;;;6.30;3.10;;;19.90;99.90;;;20.61;100.00;97955.84;5028048;28;20497;-91
2022/09/07 09:48:59;;;;;;;3.53;3.00;;;20.00;99.90;;;20.62;100.00;97946.03;5030598;28;20517;-91
2022/09/07 09:51:34;;;;;;;4.80;3.23;;;20.00;99.90;;;20.66;100.00;97939.13;5024527;28;20438;-90
2022/09/07 09:54:31;;;;;;;4.93;2.70;;;20.10;99.90;;;20.72;100.00;97946.88;5024967;28;20521;-91
2022/09/07 09:57:02;;;;;;;7.10;3.63;;;20.10;99.90;;;20.74;100.00;97939.47;5024525;28;20865;-90
2022/09/07 09:59:35;;;;;;;4.93;2.87;;;20.10;99.90;;;20.76;100.00;97937.34;5023443;28;20474;-90
2022/09/07 10:02:30;;;;;;;4.80;3.30;;;20.20;99.90;;;20.77;100.00;97930.19;5026890;28;20454;-91
2022/09/07 10:05:29;;;;;;;5.87;3.10;;;20.10;99.90;;;20.82;100.00;97920.41;5025168;28;20438;-92
2022/09/07 10:07:58;;;;;;;9.60;2.60;;;20.20;99.90;;;20.85;100.00;97925.22;5022811;28;20567;-91
2022/09/07 10:10:30;;;;;;;5.17;2.90;;;20.20;99.90;;;20.87;100.00;97932.91;5022021;28;20474;-91
2022/09/07 10:13:00;;;;;;;7.57;2.97;;;20.20;99.90;;;20.93;100.00;97932.69;5026336;28;20558;-90
2022/09/07 10:15:35;;;;;;;7.40;2.83;;;20.30;99.90;;;20.98;100.00;97937.25;5024799;28;20987;-90
2022/09/07 10:18:27;;;;;;;5.03;2.70;;;20.30;99.90;;;21.05;100.00;97932.50;5025337;28;20810;-89
2022/09/07 10:21:23;;;;;;;5.67;2.87;;;20.30;99.90;;;21.12;100.00;97935.78;5022962;28;20469;-88
2022/09/07 10:23:58;;;;;;;5.70;3.00;;;20.40;99.90;;;21.18;100.00;97934.75;5024053;28;20466;-89
2022/09/07 10:26:34;;;;;;;3.10;2.57;;;20.50;99.90;;;21.23;100.00;97937.44;5025304;28;20544;-90
2022/09/07 10:29:16;;;;;;;3.60;2.30;;;20.60;99.90;;;21.30;100.00;97938.00;5023181;28;20463;-89
2022/09/07 10:32:23;;;;;;;3.63;2.53;;;20.70;99.90;;;21.38;100.00;97931.41;5023552;28;20451;-89
2022/09/07 10:35:17;;;;;;;3.97;2.00;;;20.70;99.90;;;21.42;100.00;97946.56;5023641;28;20553;-89
2022/09/07 10:38:02;;;;;;;6.40;2.47;;;20.80;99.90;;;21.47;100.00;97951.94;5029568;28;20481;-89
2022/09/07 10:40:40;;;;;;;4.23;2.23;;;20.80;99.90;;;21.53;100.00;97942.09;5022529;28;20510;-89
2022/09/07 10:43:23;;;;;;;3.20;2.40;;;20.80;99.90;;;21.61;100.00;97938.16;5021604;28;20460;-89